Time;durP1;ratioP1;P1;durP2;ratioP2;P2;SDS_P1;SDS_P2;PMS_P1;PMS_P2;Temp;Humidity;BMP_temperature;BMP_pressure;BME280_temperature;BME280_humidity;BME280_pressure;Samples;Min_cycle;Max_cycle;Signal;HPM_P1;HPM_P2
2024/02/29 00:00:39;;;;;;;30.73;13.30;;;;;;;;;;5080383;28;20034;-51
2024/02/29 00:03:05;;;;;;;33.35;14.10;;;;;;;;;;5075254;28;20026;-53
2024/02/29 00:05:31;;;;;;;33.13;13.50;;;;;;;;;;5087627;28;20088;-53
2024/02/29 00:07:56;;;;;;;32.55;14.60;;;;;;;;;;5085150;28;20543;-55
2024/02/29 00:10:23;;;;;;;31.88;14.57;;;;;;;;;;5071130;28;20036;-55
2024/02/29 00:12:49;;;;;;;32.10;13.02;;;;;;;;;;5084649;28;20038;-55
2024/02/29 00:15:15;;;;;;;34.35;13.75;;;;;;;;;;5093355;28;20028;-55
2024/02/29 00:17:41;;;;;;;31.58;14.40;;;;;;;;;;5087027;28;20047;-55
2024/02/29 00:20:09;;;;;;;32.30;13.65;;;;;;;;;;5091300;28;20024;-54
2024/02/29 00:22:35;;;;;;;35.20;14.38;;;;;;;;;;5071429;28;20028;-56
2024/02/29 00:25:02;;;;;;;32.53;14.00;;;;;;;;;;5089922;28;20028;-54
2024/02/29 00:27:30;;;;;;;38.53;15.20;;;;;;;;;;5094438;28;20119;-56
2024/02/29 00:29:56;;;;;;;40.30;16.88;;;;;;;;;;5094717;28;20442;-56
2024/02/29 00:32:22;;;;;;;37.75;15.00;;;;;;;;;;5088733;28;20025;-55
2024/02/29 00:34:48;;;;;;;35.83;15.15;;;;;;;;;;5092819;28;20032;-56
2024/02/29 00:37:14;;;;;;;33.45;13.88;;;;;;;;;;5085459;28;20419;-55
2024/02/29 00:39:40;;;;;;;32.47;14.35;;;;;;;;;;5077601;28;20032;-53
2024/02/29 00:42:06;;;;;;;34.25;14.55;;;;;;;;;;5092821;28;20442;-55
2024/02/29 00:44:32;;;;;;;30.17;14.80;;;;;;;;;;5064946;28;20099;-55
2024/02/29 00:46:58;;;;;;;30.10;13.88;;;;;;;;;;5091750;28;20103;-55
2024/02/29 00:49:24;;;;;;;38.75;14.90;;;;;;;;;;5094446;28;20116;-56
2024/02/29 00:51:50;;;;;;;31.33;13.55;;;;;;;;;;5090424;28;20028;-56
2024/02/29 00:54:16;;;;;;;34.25;14.88;;;;;;;;;;5093062;28;20036;-56
2024/02/29 00:56:42;;;;;;;33.47;14.48;;;;;;;;;;5091340;28;20026;-56
2024/02/29 00:59:08;;;;;;;36.08;14.35;;;;;;;;;;5085613;28;20027;-55
2024/02/29 01:01:34;;;;;;;31.23;13.63;;;;;;;;;;5079578;28;20391;-54
2024/02/29 01:04:00;;;;;;;29.38;13.20;;;;;;;;;;5072122;28;20399;-56
2024/02/29 01:06:26;;;;;;;36.45;15.00;;;;;;;;;;5087527;28;20102;-55
2024/02/29 01:08:52;;;;;;;34.83;13.80;;;;;;;;;;5078367;28;20066;-52
2024/02/29 01:11:18;;;;;;;32.72;15.18;;;;;;;;;;5082734;28;20081;-55
2024/02/29 01:13:44;;;;;;;36.03;15.23;;;;;;;;;;5087611;28;20035;-55
2024/02/29 01:16:10;;;;;;;33.35;14.60;;;;;;;;;;5079491;28;20036;-55
2024/02/29 01:18:36;;;;;;;39.67;15.70;;;;;;;;;;5073699;28;20040;-55
2024/02/29 01:21:02;;;;;;;31.77;14.35;;;;;;;;;;5066854;28;20036;-53
2024/02/29 01:23:28;;;;;;;34.97;14.00;;;;;;;;;;5074484;28;20021;-55
2024/02/29 01:25:54;;;;;;;40.08;15.77;;;;;;;;;;5073606;28;20059;-56
2024/02/29 01:28:20;;;;;;;36.22;15.00;;;;;;;;;;5085088;28;20448;-51
2024/02/29 01:30:45;;;;;;;39.40;16.13;;;;;;;;;;5073874;28;20033;-54
2024/02/29 01:33:11;;;;;;;38.10;15.82;;;;;;;;;;5075962;28;20749;-54
2024/02/29 01:35:37;;;;;;;39.65;15.73;;;;;;;;;;5074286;28;20385;-52
2024/02/29 01:38:03;;;;;;;39.83;16.20;;;;;;;;;;5072882;28;20028;-55
2024/02/29 01:40:30;;;;;;;35.05;16.08;;;;;;;;;;5074643;28;20025;-55
2024/02/29 01:42:56;;;;;;;39.15;15.40;;;;;;;;;;5072522;28;20039;-55
2024/02/29 01:45:22;;;;;;;34.67;14.18;;;;;;;;;;5073241;28;20040;-55
2024/02/29 01:47:48;;;;;;;36.55;15.13;;;;;;;;;;5072963;28;20043;-56
2024/02/29 01:50:16;;;;;;;37.33;14.57;;;;;;;;;;5073275;28;20108;-55
2024/02/29 01:52:42;;;;;;;34.00;14.63;;;;;;;;;;5072149;28;20040;-53
2024/02/29 01:55:10;;;;;;;35.85;15.15;;;;;;;;;;5077295;28;20024;-54
2024/02/29 01:57:36;;;;;;;43.53;16.10;;;;;;;;;;5070487;28;20059;-56
2024/02/29 02:00:04;;;;;;;33.72;14.63;;;;;;;;;;5072871;28;20518;-56
2024/02/29 02:02:30;;;;;;;34.75;14.38;;;;;;;;;;5072197;28;20419;-51
2024/02/29 02:04:56;;;;;;;39.42;15.32;;;;;;;;;;5075443;28;20079;-52
2024/02/29 02:07:22;;;;;;;41.10;16.42;;;;;;;;;;5072726;28;20047;-52
2024/02/29 02:09:48;;;;;;;34.50;15.23;;;;;;;;;;5072638;28;20028;-52
2024/02/29 02:12:14;;;;;;;41.35;15.55;;;;;;;;;;5074896;28;20035;-52
2024/02/29 02:14:40;;;;;;;34.00;14.23;;;;;;;;;;5072833;28;20110;-51
2024/02/29 02:17:07;;;;;;;37.65;16.15;;;;;;;;;;5079527;28;20123;-50
2024/02/29 02:19:33;;;;;;;39.63;17.52;;;;;;;;;;5102818;28;20202;-49
2024/02/29 02:21:59;;;;;;;39.95;16.33;;;;;;;;;;5094495;28;20112;-50
2024/02/29 02:24:25;;;;;;;37.50;15.60;;;;;;;;;;5102866;28;20032;-51
2024/02/29 02:26:51;;;;;;;43.10;17.38;;;;;;;;;;5092597;28;20028;-53
2024/02/29 02:29:17;;;;;;;45.45;17.35;;;;;;;;;;5108604;28;20085;-53
2024/02/29 02:31:43;;;;;;;42.97;18.17;;;;;;;;;;5092467;28;20094;-52
2024/02/29 02:34:09;;;;;;;41.53;16.95;;;;;;;;;;5092637;28;20450;-51
2024/02/29 02:36:35;;;;;;;42.58;16.85;;;;;;;;;;5096144;28;20032;-50
2024/02/29 02:39:01;;;;;;;48.72;17.90;;;;;;;;;;5094122;28;20023;-52
2024/02/29 02:41:27;;;;;;;46.50;18.08;;;;;;;;;;5091877;28;20031;-50
2024/02/29 02:43:53;;;;;;;48.17;18.77;;;;;;;;;;5091445;28;20471;-51
2024/02/29 02:46:19;;;;;;;51.05;17.70;;;;;;;;;;5091958;28;21601;-52
2024/02/29 02:48:45;;;;;;;43.35;17.23;;;;;;;;;;5090717;28;20031;-51
2024/02/29 02:51:11;;;;;;;45.92;18.58;;;;;;;;;;5092296;28;20027;-51
2024/02/29 02:53:37;;;;;;;46.00;18.02;;;;;;;;;;5098065;28;20473;-51
2024/02/29 02:56:03;;;;;;;45.10;18.75;;;;;;;;;;5087978;28;20025;-51
2024/02/29 02:58:30;;;;;;;47.10;18.70;;;;;;;;;;5091272;28;20093;-51
2024/02/29 03:00:56;;;;;;;49.47;19.58;;;;;;;;;;5091277;28;20033;-49
2024/02/29 03:03:22;;;;;;;41.72;17.73;;;;;;;;;;5090698;28;20060;-52
2024/02/29 03:05:48;;;;;;;48.53;19.55;;;;;;;;;;5092219;28;20035;-50
2024/02/29 03:08:14;;;;;;;46.33;18.17;;;;;;;;;;5091852;28;20036;-52
2024/02/29 03:10:40;;;;;;;47.35;18.77;;;;;;;;;;5091784;28;20059;-52
2024/02/29 03:13:06;;;;;;;41.60;16.10;;;;;;;;;;5091490;28;20040;-52
2024/02/29 03:15:32;;;;;;;55.40;20.45;;;;;;;;;;5091232;28;20043;-51
2024/02/29 03:17:58;;;;;;;41.50;18.02;;;;;;;;;;5091649;28;20040;-46
2024/02/29 03:20:24;;;;;;;51.80;18.73;;;;;;;;;;5092080;28;20031;-47
2024/02/29 03:22:50;;;;;;;47.63;18.38;;;;;;;;;;5096615;28;20076;-48
2024/02/29 03:25:16;;;;;;;47.30;18.10;;;;;;;;;;5100160;28;20472;-49
2024/02/29 03:27:42;;;;;;;51.38;20.50;;;;;;;;;;5091740;28;20038;-50
2024/02/29 03:30:09;;;;;;;52.40;18.67;;;;;;;;;;5091411;28;20143;-48
2024/02/29 03:32:35;;;;;;;52.22;20.38;;;;;;;;;;5092978;28;20024;-49
2024/02/29 03:35:05;;;;;;;48.95;19.73;;;;;;;;;;5091671;28;20040;-52
2024/02/29 03:37:31;;;;;;;55.72;20.38;;;;;;;;;;5091579;28;20459;-51
2024/02/29 03:39:57;;;;;;;53.08;20.98;;;;;;;;;;5091537;28;20009;-49
2024/02/29 03:42:23;;;;;;;54.55;20.63;;;;;;;;;;5092002;28;20036;-51
2024/02/29 03:44:49;;;;;;;50.55;20.00;;;;;;;;;;5092140;28;20460;-52
2024/02/29 03:47:15;;;;;;;53.17;21.80;;;;;;;;;;5091831;28;20032;-51
2024/02/29 03:49:41;;;;;;;56.63;20.95;;;;;;;;;;5091481;28;20466;-51
2024/02/29 03:52:07;;;;;;;48.38;19.02;;;;;;;;;;5091085;28;20039;-50
2024/02/29 03:54:33;;;;;;;53.83;20.83;;;;;;;;;;5091258;28;20373;-52
2024/02/29 03:56:59;;;;;;;59.25;22.55;;;;;;;;;;5090982;28;20027;-51
2024/02/29 03:59:25;;;;;;;54.28;21.85;;;;;;;;;;5091947;28;20024;-51
2024/02/29 04:01:51;;;;;;;58.13;21.92;;;;;;;;;;5095086;28;20016;-51
2024/02/29 04:04:18;;;;;;;54.58;21.70;;;;;;;;;;5098972;28;20019;-49
2024/02/29 04:06:44;;;;;;;58.70;22.40;;;;;;;;;;5095863;28;20036;-50
2024/02/29 04:09:11;;;;;;;50.65;19.65;;;;;;;;;;5091117;28;20077;-52
2024/02/29 04:11:37;;;;;;;54.40;22.27;;;;;;;;;;5091111;28;20051;-51
2024/02/29 04:14:06;;;;;;;60.67;22.45;;;;;;;;;;5092206;28;20035;-49
2024/02/29 04:16:35;;;;;;;54.53;21.73;;;;;;;;;;5094801;28;20472;-51
2024/02/29 04:19:01;;;;;;;58.83;20.60;;;;;;;;;;5095467;28;20055;-51
2024/02/29 04:21:27;;;;;;;56.05;22.13;;;;;;;;;;5072801;28;20452;-51
2024/02/29 04:23:53;;;;;;;57.58;22.58;;;;;;;;;;5085924;28;20020;-51
2024/02/29 04:26:19;;;;;;;58.13;22.15;;;;;;;;;;5084003;28;20036;-49
2024/02/29 04:28:45;;;;;;;59.95;22.92;;;;;;;;;;5092917;28;20067;-47
2024/02/29 04:31:11;;;;;;;58.22;22.80;;;;;;;;;;5078480;28;20025;-47
2024/02/29 04:33:37;;;;;;;55.42;23.23;;;;;;;;;;5074667;28;20028;-49
2024/02/29 04:36:03;;;;;;;62.75;22.83;;;;;;;;;;5084768;28;20044;-50
2024/02/29 04:38:29;;;;;;;66.18;22.60;;;;;;;;;;5092675;28;20016;-53
2024/02/29 04:40:55;;;;;;;60.33;21.80;;;;;;;;;;5077443;28;20570;-53
2024/02/29 04:43:22;;;;;;;61.95;24.17;;;;;;;;;;5086412;28;20395;-52
2024/02/29 04:45:48;;;;;;;60.08;22.40;;;;;;;;;;5094554;28;20024;-54
2024/02/29 04:48:14;;;;;;;59.55;22.65;;;;;;;;;;5065727;28;20035;-52
2024/02/29 04:50:40;;;;;;;59.90;22.33;;;;;;;;;;5092605;28;20024;-53
2024/02/29 04:53:06;;;;;;;60.63;23.35;;;;;;;;;;5086852;28;20024;-52
2024/02/29 04:55:34;;;;;;;62.28;22.35;;;;;;;;;;5079944;28;20032;-51
2024/02/29 04:58:00;;;;;;;60.42;23.33;;;;;;;;;;5078006;28;20036;-52
2024/02/29 05:00:26;;;;;;;61.95;22.88;;;;;;;;;;5083703;28;20025;-53
2024/02/29 05:02:52;;;;;;;64.53;24.05;;;;;;;;;;5075539;28;20029;-53
2024/02/29 05:05:18;;;;;;;63.42;23.45;;;;;;;;;;5077412;28;20102;-54
2024/02/29 05:07:44;;;;;;;64.85;23.60;;;;;;;;;;5077263;28;20503;-54
2024/02/29 05:10:10;;;;;;;61.35;23.70;;;;;;;;;;5073351;28;20451;-52
2024/02/29 05:12:36;;;;;;;63.65;23.98;;;;;;;;;;5077837;28;20033;-55
2024/02/29 05:15:02;;;;;;;84.10;37.60;;;;;;;;;;5078578;28;20052;-52
2024/02/29 05:17:28;;;;;;;72.22;26.50;;;;;;;;;;5075205;28;20555;-54
2024/02/29 05:19:56;;;;;;;73.40;26.42;;;;;;;;;;5071730;28;20033;-52
2024/02/29 05:22:22;;;;;;;81.60;29.55;;;;;;;;;;5068735;28;20063;-51
2024/02/29 05:24:48;;;;;;;67.68;26.45;;;;;;;;;;5076008;28;20112;-53
2024/02/29 05:27:15;;;;;;;73.82;26.23;;;;;;;;;;5077524;28;20031;-51
2024/02/29 05:29:41;;;;;;;81.28;29.35;;;;;;;;;;5080597;28;20036;-53
2024/02/29 05:32:07;;;;;;;68.07;26.15;;;;;;;;;;5078093;28;20040;-50
2024/02/29 05:34:33;;;;;;;97.88;38.78;;;;;;;;;;5069666;28;20028;-52
2024/02/29 05:36:59;;;;;;;81.05;30.13;;;;;;;;;;5076035;28;20041;-55
2024/02/29 05:39:25;;;;;;;83.30;32.13;;;;;;;;;;5075234;28;20048;-51
2024/02/29 05:41:51;;;;;;;74.00;26.10;;;;;;;;;;5084007;28;20020;-54
2024/02/29 05:44:17;;;;;;;75.57;23.85;;;;;;;;;;5059864;28;20024;-55
2024/02/29 05:46:43;;;;;;;81.35;33.53;;;;;;;;;;5077095;28;20029;-51
2024/02/29 05:49:09;;;;;;;91.25;36.45;;;;;;;;;;5070203;28;20040;-53
2024/02/29 05:51:35;;;;;;;79.75;30.58;;;;;;;;;;5072256;28;20102;-52
2024/02/29 05:54:01;;;;;;;64.93;24.88;;;;;;;;;;5072659;28;20027;-54
2024/02/29 05:56:27;;;;;;;70.50;28.17;;;;;;;;;;5080794;28;20024;-53
2024/02/29 05:58:53;;;;;;;77.00;29.70;;;;;;;;;;5075768;28;20058;-53
2024/02/29 06:01:19;;;;;;;74.05;27.23;;;;;;;;;;5065066;28;20103;-53
2024/02/29 06:03:45;;;;;;;76.95;25.65;;;;;;;;;;5075103;28;20028;-55
2024/02/29 06:06:11;;;;;;;65.20;26.17;;;;;;;;;;5069043;28;20024;-53
2024/02/29 06:08:38;;;;;;;72.93;26.17;;;;;;;;;;5082614;28;20090;-53
2024/02/29 06:11:04;;;;;;;78.15;25.50;;;;;;;;;;5070085;28;20206;-52
2024/02/29 06:13:31;;;;;;;75.53;25.42;;;;;;;;;;5078731;28;20025;-52
2024/02/29 06:15:57;;;;;;;73.95;25.50;;;;;;;;;;5079408;28;20484;-51
2024/02/29 06:18:23;;;;;;;75.95;25.52;;;;;;;;;;5071718;28;20048;-52
2024/02/29 06:20:49;;;;;;;70.63;25.60;;;;;;;;;;5069476;28;20503;-54
2024/02/29 06:23:15;;;;;;;77.03;26.08;;;;;;;;;;5072290;28;20021;-52
2024/02/29 06:25:42;;;;;;;74.43;25.38;;;;;;;;;;5072045;28;20027;-51
2024/02/29 06:28:08;;;;;;;80.95;25.63;;;;;;;;;;5077961;28;20036;-51
2024/02/29 06:30:34;;;;;;;73.30;26.60;;;;;;;;;;5073993;28;20042;-53
2024/02/29 06:33:00;;;;;;;78.30;27.38;;;;;;;;;;5074042;28;20024;-54
2024/02/29 06:35:26;;;;;;;70.53;25.73;;;;;;;;;;5083189;28;20032;-49
2024/02/29 06:37:52;;;;;;;78.47;25.95;;;;;;;;;;5077291;28;20103;-52
2024/02/29 06:40:18;;;;;;;75.75;27.52;;;;;;;;;;5074201;28;20021;-53
2024/02/29 06:42:44;;;;;;;83.28;26.58;;;;;;;;;;5077730;28;20415;-53
2024/02/29 06:45:10;;;;;;;74.55;26.48;;;;;;;;;;5085218;28;20064;-52
2024/02/29 06:47:38;;;;;;;69.43;25.70;;;;;;;;;;5072914;28;20025;-52
2024/02/29 06:50:04;;;;;;;78.30;28.00;;;;;;;;;;5074954;28;20067;-54
2024/02/29 06:52:30;;;;;;;75.97;27.52;;;;;;;;;;5072101;28;20067;-53
2024/02/29 06:54:56;;;;;;;74.18;26.95;;;;;;;;;;5074073;28;20705;-54
2024/02/29 06:57:22;;;;;;;75.90;26.50;;;;;;;;;;5073378;28;20033;-56
2024/02/29 06:59:48;;;;;;;73.85;26.67;;;;;;;;;;5071221;28;20024;-55
2024/02/29 07:02:14;;;;;;;80.70;28.85;;;;;;;;;;5071804;28;20016;-55
2024/02/29 07:04:40;;;;;;;88.68;28.50;;;;;;;;;;5068834;28;20025;-55
2024/02/29 07:07:09;;;;;;;70.47;26.52;;;;;;;;;;5074354;28;20078;-56
2024/02/29 07:09:35;;;;;;;80.53;28.23;;;;;;;;;;5071529;28;20078;-55
2024/02/29 07:12:01;;;;;;;76.47;28.58;;;;;;;;;;5068894;28;20424;-54
2024/02/29 07:14:27;;;;;;;74.35;27.25;;;;;;;;;;5070845;28;20116;-55
2024/02/29 07:16:53;;;;;;;83.03;30.73;;;;;;;;;;5072577;28;20407;-54
2024/02/29 07:19:19;;;;;;;78.80;28.27;;;;;;;;;;5071214;28;20035;-56
2024/02/29 07:21:45;;;;;;;72.65;28.23;;;;;;;;;;5071110;28;20074;-54
2024/02/29 07:24:11;;;;;;;80.18;30.55;;;;;;;;;;5068574;28;20025;-56
2024/02/29 07:26:41;;;;;;;74.68;28.38;;;;;;;;;;5070431;28;20028;-53
2024/02/29 07:29:07;;;;;;;74.20;29.42;;;;;;;;;;5071921;28;20024;-55
2024/02/29 07:31:33;;;;;;;78.43;28.13;;;;;;;;;;5070701;28;20032;-56
2024/02/29 07:33:59;;;;;;;78.38;27.45;;;;;;;;;;5070363;28;20035;-55
2024/02/29 07:36:25;;;;;;;77.93;28.95;;;;;;;;;;5070687;28;20468;-55
2024/02/29 07:38:51;;;;;;;71.80;26.70;;;;;;;;;;5070820;28;20401;-56
2024/02/29 07:41:17;;;;;;;78.88;28.90;;;;;;;;;;5066136;28;20025;-55
2024/02/29 07:43:43;;;;;;;74.70;27.85;;;;;;;;;;5070904;28;20021;-55
2024/02/29 07:46:09;;;;;;;77.13;30.88;;;;;;;;;;5078617;28;20028;-54
2024/02/29 07:48:35;;;;;;;68.57;27.55;;;;;;;;;;5072621;28;20043;-55
2024/02/29 07:51:01;;;;;;;72.15;28.63;;;;;;;;;;5074629;28;20028;-53
2024/02/29 07:53:28;;;;;;;69.15;27.10;;;;;;;;;;5074535;28;20024;-56
2024/02/29 07:55:54;;;;;;;66.65;27.63;;;;;;;;;;5074408;28;20059;-55
2024/02/29 07:58:20;;;;;;;74.20;28.45;;;;;;;;;;5077299;28;20021;-54
2024/02/29 08:00:46;;;;;;;76.78;27.40;;;;;;;;;;5074079;28;20029;-53
2024/02/29 08:03:12;;;;;;;63.53;26.27;;;;;;;;;;5073715;28;20016;-53
2024/02/29 08:05:38;;;;;;;67.00;27.17;;;;;;;;;;5074491;28;20036;-52
2024/02/29 08:08:04;;;;;;;61.78;26.27;;;;;;;;;;5074757;28;20043;-53
2024/02/29 08:10:30;;;;;;;72.43;28.92;;;;;;;;;;5067438;28;20116;-54
2024/02/29 08:12:56;;;;;;;65.95;25.98;;;;;;;;;;5074064;28;20060;-54
2024/02/29 08:15:22;;;;;;;63.60;24.92;;;;;;;;;;5074206;28;20021;-54
2024/02/29 08:17:48;;;;;;;68.22;27.67;;;;;;;;;;5085231;28;20036;-53
2024/02/29 08:20:14;;;;;;;68.00;28.23;;;;;;;;;;5094199;28;20074;-53
2024/02/29 08:22:40;;;;;;;67.82;26.45;;;;;;;;;;5094521;28;20040;-53
2024/02/29 08:25:08;;;;;;;63.08;25.92;;;;;;;;;;5094403;28;20048;-54
2024/02/29 08:27:35;;;;;;;62.38;26.17;;;;;;;;;;5087019;28;20115;-53
2024/02/29 08:30:01;;;;;;;61.42;24.15;;;;;;;;;;5093925;28;20441;-54
2024/02/29 08:32:27;;;;;;;68.60;27.73;;;;;;;;;;5093716;28;20161;-53
2024/02/29 08:34:54;;;;;;;65.65;24.92;;;;;;;;;;5093781;28;20032;-53
2024/02/29 08:37:20;;;;;;;66.13;25.55;;;;;;;;;;5093836;28;20016;-53
2024/02/29 08:39:46;;;;;;;60.38;24.13;;;;;;;;;;5093988;28;20016;-53
2024/02/29 08:42:12;;;;;;;62.60;25.23;;;;;;;;;;5092702;28;20318;-53
2024/02/29 08:44:42;;;;;;;63.97;25.35;;;;;;;;;;5098226;28;20403;-53
2024/02/29 08:47:08;;;;;;;66.97;26.05;;;;;;;;;;5091715;28;20059;-52
2024/02/29 08:49:34;;;;;;;62.15;25.98;;;;;;;;;;5110722;28;20035;-53
2024/02/29 08:52:00;;;;;;;58.60;24.45;;;;;;;;;;5096273;28;20032;-53
2024/02/29 08:54:26;;;;;;;58.28;25.13;;;;;;;;;;5093501;28;20039;-54
2024/02/29 08:56:52;;;;;;;54.08;22.60;;;;;;;;;;5095173;28;20035;-53
2024/02/29 08:59:18;;;;;;;57.00;24.38;;;;;;;;;;5097928;28;20090;-54
2024/02/29 09:01:44;;;;;;;59.85;24.63;;;;;;;;;;5093529;28;20020;-54
2024/02/29 09:04:10;;;;;;;55.47;23.55;;;;;;;;;;5089431;28;20059;-53
2024/02/29 09:06:36;;;;;;;53.42;22.10;;;;;;;;;;5093423;28;20024;-56
2024/02/29 09:09:02;;;;;;;54.22;23.40;;;;;;;;;;5094895;28;20051;-57
2024/02/29 09:11:29;;;;;;;57.55;23.27;;;;;;;;;;5092840;28;20051;-56
2024/02/29 09:13:56;;;;;;;54.60;22.55;;;;;;;;;;5091345;28;20028;-56
2024/02/29 09:16:22;;;;;;;47.75;21.98;;;;;;;;;;5102491;28;20031;-56
2024/02/29 09:18:48;;;;;;;47.85;20.48;;;;;;;;;;5093103;28;20127;-54
2024/02/29 09:21:15;;;;;;;52.95;22.55;;;;;;;;;;5093038;28;20507;-54
2024/02/29 09:23:41;;;;;;;46.92;21.33;;;;;;;;;;5092442;28;20028;-52
2024/02/29 09:26:07;;;;;;;51.85;22.38;;;;;;;;;;5092249;28;20020;-53
2024/02/29 09:28:35;;;;;;;53.03;21.48;;;;;;;;;;5095811;28;20122;-54
2024/02/29 09:31:01;;;;;;;44.97;20.33;;;;;;;;;;5100778;28;20074;-54
2024/02/29 09:33:26;;;;;;;47.72;21.13;;;;;;;;;;5098448;28;20107;-53
2024/02/29 09:35:57;;;;;;;44.38;20.42;;;;;;;;;;5099569;28;20024;-53
2024/02/29 09:38:23;;;;;;;47.38;21.25;;;;;;;;;;5077017;28;20490;-53
2024/02/29 09:40:49;;;;;;;47.72;20.13;;;;;;;;;;5092573;28;20059;-54
2024/02/29 09:43:15;;;;;;;46.22;20.85;;;;;;;;;;5090849;28;20046;-54
2024/02/29 09:45:42;;;;;;;47.25;21.45;;;;;;;;;;5093517;28;20495;-53
2024/02/29 09:48:09;;;;;;;51.03;21.60;;;;;;;;;;5092568;28;20031;-54
2024/02/29 09:50:35;;;;;;;46.33;21.75;;;;;;;;;;5091759;28;20039;-54
2024/02/29 09:53:01;;;;;;;44.90;20.95;;;;;;;;;;5091960;28;20459;-54
2024/02/29 09:55:27;;;;;;;44.42;20.58;;;;;;;;;;5092127;28;20107;-55
2024/02/29 09:57:54;;;;;;;41.47;20.20;;;;;;;;;;5092055;28;20030;-54
2024/02/29 10:00:20;;;;;;;37.72;18.60;;;;;;;;;;5092201;28;20055;-54
2024/02/29 10:02:48;;;;;;;45.30;20.05;;;;;;;;;;5094642;28;20372;-54
2024/02/29 10:05:14;;;;;;;37.20;19.23;;;;;;;;;;5092560;28;20032;-54
2024/02/29 10:07:47;;;;;;;38.72;18.85;;;;;;;;;;5071622;28;20409;-54
2024/02/29 10:10:14;;;;;;;38.28;18.95;;;;;;;;;;5099264;28;20028;-55
2024/02/29 10:12:40;;;;;;;33.50;17.17;;;;;;;;;;5097557;28;20020;-55
2024/02/29 10:15:10;;;;;;;37.58;17.35;;;;;;;;;;5081724;28;20115;-54
2024/02/29 10:17:36;;;;;;;36.85;18.17;;;;;;;;;;5088798;28;20503;-57
2024/02/29 10:20:03;;;;;;;36.55;17.88;;;;;;;;;;5099965;28;20443;-56
2024/02/29 10:22:30;;;;;;;32.80;16.70;;;;;;;;;;5095984;28;20498;-57
2024/02/29 10:24:56;;;;;;;34.28;17.45;;;;;;;;;;5103913;28;20028;-58
2024/02/29 10:27:25;;;;;;;33.13;15.80;;;;;;;;;;5096158;28;20584;-58
2024/02/29 10:29:50;;;;;;;34.58;17.83;;;;;;;;;;5098444;28;20059;-57
2024/02/29 10:32:16;;;;;;;33.90;16.92;;;;;;;;;;5094822;28;20031;-58
2024/02/29 10:34:42;;;;;;;32.40;16.45;;;;;;;;;;5091401;28;20127;-54
2024/02/29 10:37:08;;;;;;;30.13;15.95;;;;;;;;;;5089132;28;20044;-58
2024/02/29 10:39:38;;;;;;;26.08;15.10;;;;;;;;;;5091871;28;20438;-58
2024/02/29 10:42:05;;;;;;;26.42;14.40;;;;;;;;;;5090015;28;20084;-58
2024/02/29 10:44:31;;;;;;;24.40;13.88;;;;;;;;;;5094368;28;20084;-58
2024/02/29 10:47:02;;;;;;;25.88;13.98;;;;;;;;;;5091406;28;20162;-58
2024/02/29 10:49:33;;;;;;;27.25;13.70;;;;;;;;;;5092988;28;20081;-58
2024/02/29 10:52:04;;;;;;;30.05;14.40;;;;;;;;;;5089013;28;20028;-58
2024/02/29 10:54:35;;;;;;;24.05;13.27;;;;;;;;;;5091243;28;20030;-58
2024/02/29 10:57:04;;;;;;;20.85;12.38;;;;;;;;;;5095283;28;20499;-58
2024/02/29 10:59:31;;;;;;;23.25;12.82;;;;;;;;;;5093583;28;20089;-58
2024/02/29 11:01:58;;;;;;;22.10;12.80;;;;;;;;;;5095225;28;20135;-58
2024/02/29 11:04:25;;;;;;;22.90;12.32;;;;;;;;;;5090759;28;20534;-58
2024/02/29 11:06:52;;;;;;;22.00;12.23;;;;;;;;;;5091361;28;20035;-58
2024/02/29 11:09:23;;;;;;;19.55;12.23;;;;;;;;;;5086249;28;20378;-59
2024/02/29 11:11:49;;;;;;;21.23;11.55;;;;;;;;;;5089924;28;20043;-59
2024/02/29 11:14:18;;;;;;;18.23;11.02;;;;;;;;;;5106226;28;20035;-58
2024/02/29 11:16:45;;;;;;;17.05;10.70;;;;;;;;;;5092132;28;20028;-58
2024/02/29 11:19:15;;;;;;;19.40;11.45;;;;;;;;;;5089990;28;20036;-59
2024/02/29 11:21:41;;;;;;;19.85;11.10;;;;;;;;;;5091524;28;20024;-59
2024/02/29 11:24:08;;;;;;;18.20;10.30;;;;;;;;;;5089997;28;20027;-59
2024/02/29 11:26:34;;;;;;;20.52;10.80;;;;;;;;;;5091050;28;20151;-59
2024/02/29 11:29:14;;;;;;;14.68;9.02;;;;;;;;;;5097543;28;20037;-59
2024/02/29 11:31:51;;;;;;;15.68;9.45;;;;;;;;;;5091017;28;20035;-59
2024/02/29 11:34:17;;;;;;;15.95;9.68;;;;;;;;;;5090656;28;20036;-58
2024/02/29 11:36:47;;;;;;;16.10;9.45;;;;;;;;;;5094255;28;20020;-52
2024/02/29 11:39:15;;;;;;;15.95;9.90;;;;;;;;;;5094463;28;20076;-53
2024/02/29 11:41:41;;;;;;;13.20;8.43;;;;;;;;;;5087838;28;20085;-51
2024/02/29 11:44:07;;;;;;;11.13;7.90;;;;;;;;;;5088846;28;20031;-52
2024/02/29 11:46:33;;;;;;;13.90;8.60;;;;;;;;;;5090959;28;20501;-51
2024/02/29 11:48:59;;;;;;;14.05;8.30;;;;;;;;;;5094828;28;20065;-53
2024/02/29 11:51:25;;;;;;;10.75;7.30;;;;;;;;;;5093676;28;20020;-54
2024/02/29 11:53:52;;;;;;;11.77;7.78;;;;;;;;;;5090353;28;20040;-52
2024/02/29 11:56:18;;;;;;;13.13;7.85;;;;;;;;;;5096759;28;20368;-54
2024/02/29 11:58:45;;;;;;;13.90;7.45;;;;;;;;;;5099093;28;20110;-50
2024/02/29 12:01:12;;;;;;;13.70;8.05;;;;;;;;;;5093012;28;20104;-50
2024/02/29 12:03:38;;;;;;;11.30;6.82;;;;;;;;;;5085132;28;20365;-51
2024/02/29 12:06:04;;;;;;;12.55;7.00;;;;;;;;;;5090580;28;20016;-47
2024/02/29 12:08:31;;;;;;;14.27;7.95;;;;;;;;;;5087603;28;20024;-52
2024/02/29 12:10:58;;;;;;;13.02;7.90;;;;;;;;;;5090616;28;20023;-52
2024/02/29 12:13:24;;;;;;;11.18;7.65;;;;;;;;;;5090133;28;20062;-52
2024/02/29 12:15:52;;;;;;;12.52;7.32;;;;;;;;;;5088484;28;20494;-52
2024/02/29 12:18:19;;;;;;;11.93;8.10;;;;;;;;;;5075874;28;20126;-51
2024/02/29 12:20:45;;;;;;;13.57;7.68;;;;;;;;;;5070023;28;20126;-54
2024/02/29 12:23:14;;;;;;;11.05;7.45;;;;;;;;;;5069534;28;20099;-54
2024/02/29 12:25:40;;;;;;;12.38;7.18;;;;;;;;;;5064381;28;20435;-51
2024/02/29 12:28:06;;;;;;;13.05;7.95;;;;;;;;;;5069892;28;20051;-52
2024/02/29 12:30:32;;;;;;;10.57;7.32;;;;;;;;;;5071239;28;20055;-51
2024/02/29 12:32:58;;;;;;;12.52;7.47;;;;;;;;;;5069650;28;20389;-52
2024/02/29 12:35:28;;;;;;;11.65;7.35;;;;;;;;;;5071786;28;20029;-51
2024/02/29 12:37:54;;;;;;;12.35;7.57;;;;;;;;;;5073504;28;20502;-52
2024/02/29 12:40:21;;;;;;;10.13;7.00;;;;;;;;;;5082871;28;20059;-49
2024/02/29 12:42:46;;;;;;;11.35;7.32;;;;;;;;;;5077105;28;20554;-50
2024/02/29 12:45:12;;;;;;;11.82;6.78;;;;;;;;;;5073562;28;20020;-52
2024/02/29 12:47:39;;;;;;;10.02;6.28;;;;;;;;;;5073886;28;20035;-52
2024/02/29 12:50:07;;;;;;;9.82;6.40;;;;;;;;;;5073349;28;20074;-52
2024/02/29 12:52:33;;;;;;;10.68;6.97;;;;;;;;;;5073213;28;20074;-53
2024/02/29 12:54:59;;;;;;;9.10;6.15;;;;;;;;;;5073332;28;20020;-53
2024/02/29 12:57:25;;;;;;;10.35;6.43;;;;;;;;;;5073537;28;20051;-51
2024/02/29 12:59:51;;;;;;;10.90;7.10;;;;;;;;;;5083123;28;20044;-52
2024/02/29 13:02:17;;;;;;;8.73;6.05;;;;;;;;;;5077382;28;20028;-52
2024/02/29 13:04:43;;;;;;;8.85;6.25;;;;;;;;;;5080838;28;20021;-53
2024/02/29 13:07:09;;;;;;;8.23;5.57;;;;;;;;;;5060119;28;20079;-54
2024/02/29 13:09:35;;;;;;;10.27;6.55;;;;;;;;;;5078833;28;20115;-52
2024/02/29 13:12:01;;;;;;;9.80;7.03;;;;;;;;;;5073162;28;20047;-52
2024/02/29 13:14:27;;;;;;;9.00;6.65;;;;;;;;;;5081219;28;20488;-54
2024/02/29 13:16:53;;;;;;;8.75;6.38;;;;;;;;;;5070961;28;20396;-50
2024/02/29 13:19:19;;;;;;;10.02;5.45;;;;;;;;;;5081407;28;20074;-53
2024/02/29 13:21:45;;;;;;;11.60;6.53;;;;;;;;;;5082886;28;20043;-56
2024/02/29 13:24:11;;;;;;;9.63;6.13;;;;;;;;;;5091115;28;20532;-53
2024/02/29 13:26:37;;;;;;;9.40;5.85;;;;;;;;;;5086701;28;20475;-54
2024/02/29 13:29:04;;;;;;;9.68;6.20;;;;;;;;;;5075661;28;20065;-52
2024/02/29 13:31:30;;;;;;;10.80;6.47;;;;;;;;;;5079691;28;20028;-53
2024/02/29 13:33:56;;;;;;;9.95;6.43;;;;;;;;;;5077106;28;20388;-53
2024/02/29 13:36:22;;;;;;;8.52;6.22;;;;;;;;;;5084491;28;20411;-53
2024/02/29 13:38:48;;;;;;;9.43;6.40;;;;;;;;;;5084448;28;20488;-53
2024/02/29 13:41:13;;;;;;;9.45;5.97;;;;;;;;;;5086567;28;20028;-52
2024/02/29 13:43:42;;;;;;;8.73;5.97;;;;;;;;;;5077236;28;20365;-52
2024/02/29 13:46:08;;;;;;;10.32;6.80;;;;;;;;;;5072572;28;20042;-56
2024/02/29 13:48:34;;;;;;;9.93;6.32;;;;;;;;;;5081219;28;20081;-52
2024/02/29 13:51:00;;;;;;;11.00;7.15;;;;;;;;;;5077348;28;20027;-55
2024/02/29 13:53:26;;;;;;;9.52;6.15;;;;;;;;;;5069800;28;20155;-54
2024/02/29 13:55:52;;;;;;;11.35;7.15;;;;;;;;;;5085599;28;20028;-52
2024/02/29 13:58:18;;;;;;;13.55;8.13;;;;;;;;;;5086631;28;20035;-54
2024/02/29 14:00:44;;;;;;;13.60;8.43;;;;;;;;;;5072886;28;20028;-54
2024/02/29 14:03:11;;;;;;;13.63;7.70;;;;;;;;;;5076649;28;20391;-52
2024/02/29 14:05:37;;;;;;;12.48;7.72;;;;;;;;;;5071215;28;20024;-52
2024/02/29 14:08:03;;;;;;;11.45;7.60;;;;;;;;;;5068768;28;20097;-52
2024/02/29 14:10:29;;;;;;;13.30;8.90;;;;;;;;;;5077908;28;20491;-55
2024/02/29 14:12:55;;;;;;;13.63;8.02;;;;;;;;;;5074257;28;20479;-53
2024/02/29 14:15:22;;;;;;;12.10;7.35;;;;;;;;;;5076239;28;20032;-52